Port Lions, AK

3:45 AM AKDT on August 26, 2016 (GMT -0800)
| | Change Station

Elev -9999 ft 0.00 °N, 0.00 °E | Updated

Partly Cloudy
Partly Cloudy
51 °F
Feels Like 51 °F
N
0
Wind Variable Wind from NNW
Gusts mph

Today
High -- | Low -- °F
--% Chance of Precip.
Yesterday
High -- | Low -- °F
Precip. -- in
Pressure 30.30 in
Visibility 10.0 miles
Clouds Clear
Dew Point 49 °F
Humidity 90%
Rainfall --
Snow Depth Not available.
7:01 AM 9:26 PM
Waning Crescent, 35% visible
METAR PADQ 261053Z 25005KT 10SM CLR 11/11 A3029 RMK AO2 SLP258 T01060106
Pressure 30.30 in
Visibility 10.0 miles
Clouds Clear
Dew Point 49 °F
Humidity 90%
Rainfall --
Snow Depth Not available.
7:01 AM 9:26 PM
Waning Crescent, 35% visible
METAR PADQ 261053Z 25005KT 10SM CLR 11/11 A3029 RMK AO2 SLP258 T01060106

10-Day Weather Forecast

Almanac

Astronomy

Aug. 26, 2016 Rise Set
Actual Time
Civil Twilight
Nautical Twilight
Astronomical Twilight
Moon
Length of Visible Light
Length of Day
Tomorrow will be .
, % of the Moon is Illuminated

Today's Extremes

State Highs State Lows

Community

WunderPhotos

Upload Photos

1,935,071 photos uploaded!

WunderBlog® & News

Nearby

Air Quality

  Air Quality AQ Index Pollutant
Not available.

Snow Depth

Station Depth Elevation

Earthquake Activity

City Distance Mag. Time & Date
Minimum magnitude displayed is 2.5.

Coastal Water Temperatures

Place Temperature

Stations

Nearby Weather Stations

Station Location Temp. Windchill Dew Point Humidity Wind Precip. Elev Updated Type
                   

Watches & Warnings

There are currently no watches in effect.